Terminal Aerodrome Forecast
Issued by NWS Twin Cities, MN

Home | Current Version | Previous Version | Text Only | Print | Product List | Glossary Off
Versions: 1 2 3 4 5 6 7 8 9 10 11 12 13 14 15 16 17

000
FTUS43 KMPX 290323 AAA
TAFEAU
TAF AMD
KEAU 290323Z 2903/2924 VRB04KT 6SM BR OVC020
      TEMPO 2903/2906 2SM -FZDZSN OVC014
     FM290600 VRB03KT 2SM -FZDZSN BR OVC006
     FM290900 31011KT 4SM -SHSN BR OVC009
     FM291200 32016G23KT P6SM OVC012
     FM292100 32013G20KT P6SM BKN020=

USA.gov is the U.S. government's official web portal to all federal, state and local government web resources and services.